createdAt,value
2023-01-22T00:00:36.278Z,3.58
2023-01-22T00:03:03.123Z,3.58
2023-01-22T00:05:29.819Z,3.63
2023-01-22T00:07:56.453Z,3.54
2023-01-22T00:10:23.205Z,3.56
2023-01-22T00:12:50.009Z,3.56
2023-01-22T00:15:16.897Z,3.58
2023-01-22T00:17:43.687Z,3.57
2023-01-22T00:20:12.362Z,3.61
2023-01-22T00:22:39.134Z,3.63
2023-01-22T00:25:06.650Z,3.67
2023-01-22T00:27:33.285Z,3.65
2023-01-22T00:29:59.900Z,3.59
2023-01-22T00:32:26.626Z,3.64
2023-01-22T00:34:54.939Z,3.61
2023-01-22T00:37:21.691Z,3.60
2023-01-22T00:39:48.402Z,3.57
2023-01-22T00:42:15.122Z,3.64
2023-01-22T00:44:41.900Z,3.61
2023-01-22T00:47:08.645Z,3.62
2023-01-22T00:49:35.434Z,3.64
2023-01-22T00:52:02.129Z,3.67
2023-01-22T00:54:30.361Z,3.64
2023-01-22T00:56:57.258Z,3.62
2023-01-22T00:59:24.167Z,3.62
2023-01-22T01:01:52.124Z,3.67
2023-01-22T01:04:18.847Z,3.61
2023-01-22T01:06:45.637Z,3.67
2023-01-22T01:09:12.679Z,3.64
2023-01-22T01:11:39.810Z,3.74
2023-01-22T01:14:06.803Z,3.72
2023-01-22T01:16:33.817Z,3.73
2023-01-22T01:19:06.938Z,3.68
2023-01-22T01:21:36.432Z,3.71
2023-01-22T01:24:03.789Z,3.68
2023-01-22T01:26:30.892Z,3.71
2023-01-22T01:28:58.139Z,3.70
2023-01-22T01:31:26.313Z,3.74
2023-01-22T01:33:53.758Z,3.78
2023-01-22T01:36:45.870Z,3.70
2023-01-22T01:39:10.691Z,3.72
2023-01-22T01:41:38.619Z,3.72
2023-01-22T01:44:14.841Z,3.75
2023-01-22T01:46:47.968Z,3.76
2023-01-22T01:49:21.471Z,3.80
2023-01-22T01:51:49.290Z,3.82
2023-01-22T01:54:17.761Z,3.74
2023-01-22T01:56:50.689Z,3.78
2023-01-22T01:59:19.940Z,3.80
2023-01-22T02:01:53.656Z,3.79
2023-01-22T02:04:21.666Z,3.78
2023-01-22T02:06:48.507Z,3.77
2023-01-22T02:09:15.291Z,3.75
2023-01-22T02:11:42.645Z,3.77
2023-01-22T02:14:13.403Z,3.78
2023-01-22T02:16:40.181Z,3.78
2023-01-22T02:19:07.005Z,3.76
2023-01-22T02:21:35.746Z,3.75
2023-01-22T02:24:05.743Z,3.82
2023-01-22T02:26:32.600Z,3.86
2023-01-22T02:28:59.468Z,3.84
2023-01-22T02:31:26.180Z,3.88
2023-01-22T02:33:53.190Z,3.77
2023-01-22T02:36:21.297Z,3.86
2023-01-22T02:38:48.082Z,3.79
2023-01-22T02:41:15.463Z,3.85
2023-01-22T02:43:42.250Z,3.83
2023-01-22T02:46:08.961Z,3.83
2023-01-22T02:48:35.879Z,3.89
2023-01-22T02:51:02.925Z,3.87
2023-01-22T02:53:29.752Z,3.83
2023-01-22T02:55:56.516Z,3.82
2023-01-22T02:58:23.260Z,3.84
2023-01-22T03:00:50.082Z,3.82
2023-01-22T03:03:16.774Z,3.91
2023-01-22T03:05:47.536Z,3.87
2023-01-22T03:08:14.498Z,3.89
2023-01-22T03:10:41.251Z,3.79
2023-01-22T03:13:26.444Z,3.83
2023-01-22T03:16:11.943Z,3.75
2023-01-22T03:18:57.218Z,3.80
2023-01-22T03:21:24.140Z,3.78
2023-01-22T03:23:53.516Z,3.79
2023-01-22T03:26:22.517Z,3.80
2023-01-22T03:28:49.656Z,3.84
2023-01-22T03:31:17.377Z,3.84
2023-01-22T03:33:44.197Z,3.83
2023-01-22T03:36:14.215Z,3.84
2023-01-22T03:38:41.219Z,3.83
2023-01-22T03:41:14.443Z,3.79
2023-01-22T03:43:41.287Z,3.79
2023-01-22T03:46:13.475Z,3.79
2023-01-22T03:48:40.874Z,3.79
2023-01-22T03:51:15.367Z,3.80
2023-01-22T03:53:43.740Z,3.74
2023-01-22T03:56:17.391Z,3.79
2023-01-22T03:58:44.782Z,3.80
2023-01-22T04:01:14.918Z,3.76
2023-01-22T04:03:41.731Z,3.77
2023-01-22T04:06:10.632Z,3.73
2023-01-22T04:08:41.993Z,3.78
2023-01-22T04:11:09.698Z,3.72
2023-01-22T04:13:38.547Z,3.75
2023-01-22T04:16:06.443Z,3.72
2023-01-22T04:18:33.284Z,3.75
2023-01-22T04:20:59.944Z,3.73
2023-01-22T04:23:27.077Z,3.77
2023-01-22T04:25:54.329Z,3.80
2023-01-22T04:28:21.642Z,3.79
2023-01-22T04:30:53.060Z,3.80
2023-01-22T04:33:20.176Z,3.77
2023-01-22T04:35:51.372Z,3.79
2023-01-22T04:38:18.158Z,3.78
2023-01-22T04:40:44.913Z,3.79
2023-01-22T04:43:12.133Z,3.80
2023-01-22T04:45:39.127Z,3.87
2023-01-22T04:48:06.303Z,3.85
2023-01-22T04:50:33.746Z,3.80
2023-01-22T04:53:00.989Z,3.76
2023-01-22T04:55:28.828Z,3.84
2023-01-22T04:58:00.231Z,3.87
2023-01-22T05:00:27.995Z,3.87
2023-01-22T05:03:00.037Z,3.78
2023-01-22T05:05:28.684Z,3.83
2023-01-22T05:07:55.732Z,3.82
2023-01-22T05:10:22.770Z,3.84
2023-01-22T05:12:49.593Z,3.84
2023-01-22T05:15:24.011Z,3.88
2023-01-22T05:17:52.245Z,3.84
2023-01-22T05:20:19.402Z,3.75
2023-01-22T05:22:46.310Z,3.86
2023-01-22T05:25:13.018Z,3.86
2023-01-22T05:27:40.228Z,3.87
2023-01-22T05:30:09.516Z,3.83
2023-01-22T05:32:36.217Z,3.82
2023-01-22T05:35:03.575Z,3.85
2023-01-22T05:37:31.759Z,3.80
2023-01-22T05:39:58.449Z,3.89
2023-01-22T05:42:25.273Z,3.82
2023-01-22T05:44:52.015Z,3.82
2023-01-22T05:47:18.751Z,3.86
2023-01-22T05:49:45.519Z,3.88
2023-01-22T05:52:12.327Z,3.79
2023-01-22T05:54:39.804Z,3.87
2023-01-22T05:57:07.402Z,3.91
2023-01-22T05:59:34.460Z,3.91
2023-01-22T06:02:01.839Z,3.88
2023-01-22T06:04:29.309Z,3.88
2023-01-22T06:06:56.229Z,3.89
2023-01-22T06:09:23.549Z,3.86
2023-01-22T06:11:50.389Z,3.88
2023-01-22T06:14:17.188Z,3.85
2023-01-22T06:16:43.928Z,3.86
2023-01-22T06:19:11.259Z,3.88
2023-01-22T06:21:38.131Z,3.86
2023-01-22T06:24:05.121Z,3.83
2023-01-22T06:26:32.151Z,3.80
2023-01-22T06:28:59.049Z,3.83
2023-01-22T06:31:25.988Z,3.87
2023-01-22T06:33:53.764Z,3.88
2023-01-22T06:36:20.533Z,3.89
2023-01-22T06:38:47.285Z,3.84
2023-01-22T06:41:13.976Z,3.86
2023-01-22T06:43:40.839Z,3.87
2023-01-22T06:46:07.635Z,3.91
2023-01-22T06:48:34.365Z,3.88
2023-01-22T06:51:01.080Z,3.92
2023-01-22T06:53:28.466Z,3.84
2023-01-22T06:55:55.391Z,3.87
2023-01-22T06:58:22.089Z,3.86
2023-01-22T07:00:48.864Z,3.88
2023-01-22T07:03:16.119Z,3.89
2023-01-22T07:05:42.861Z,3.85
2023-01-22T07:08:14.523Z,3.84
2023-01-22T07:10:41.724Z,3.82
2023-01-22T07:13:10.247Z,3.86
2023-01-22T07:15:37.398Z,3.86
2023-01-22T07:18:04.207Z,3.89
2023-01-22T07:20:31.173Z,3.95
2023-01-22T07:23:00.210Z,3.92
2023-01-22T07:25:27.939Z,3.87
2023-01-22T07:28:06.277Z,3.88
2023-01-22T07:30:33.323Z,3.92
2023-01-22T07:33:01.181Z,3.93
2023-01-22T07:35:29.002Z,3.90
2023-01-22T07:37:58.411Z,3.93
2023-01-22T07:40:26.021Z,3.94
2023-01-22T07:42:53.476Z,3.92
2023-01-22T07:45:20.675Z,3.95
2023-01-22T07:47:58.805Z,3.93
2023-01-22T07:50:29.015Z,3.97
2023-01-22T07:52:56.504Z,3.93
2023-01-22T07:55:23.404Z,3.93
2023-01-22T07:57:58.234Z,3.95
2023-01-22T08:00:25.159Z,3.95
2023-01-22T08:02:51.883Z,3.99
2023-01-22T08:05:18.679Z,3.95
2023-01-22T08:07:45.449Z,3.94
2023-01-22T08:10:15.081Z,3.99
2023-01-22T08:12:46.103Z,3.97
2023-01-22T08:15:14.127Z,4.00
2023-01-22T08:17:41.183Z,3.97
2023-01-22T08:20:10.163Z,3.98
2023-01-22T08:22:36.932Z,4.01
2023-01-22T08:25:04.467Z,4.07
2023-01-22T08:27:31.183Z,4.04
2023-01-22T08:29:57.876Z,4.07
2023-01-22T08:32:24.693Z,4.09
2023-01-22T08:34:54.227Z,4.08
2023-01-22T08:37:22.184Z,4.01
2023-01-22T08:39:49.055Z,4.13
2023-01-22T08:42:16.430Z,4.16
2023-01-22T08:44:43.339Z,4.17
2023-01-22T08:47:11.585Z,4.15
2023-01-22T08:49:38.474Z,4.09
2023-01-22T08:52:06.063Z,4.18
2023-01-22T08:54:32.799Z,4.19
2023-01-22T08:57:00.334Z,4.06
2023-01-22T08:59:28.447Z,4.09
2023-01-22T09:01:59.063Z,4.18
2023-01-22T09:04:26.023Z,4.18
2023-01-22T09:06:52.946Z,4.13
2023-01-22T09:09:19.664Z,4.12
2023-01-22T09:11:46.932Z,4.17
2023-01-22T09:14:14.070Z,4.17
2023-01-22T09:16:40.793Z,4.18
2023-01-22T09:19:07.935Z,4.27
2023-01-22T09:21:37.237Z,4.22
2023-01-22T09:24:05.410Z,4.15
2023-01-22T09:26:32.606Z,4.18
2023-01-22T09:29:01.458Z,4.23
2023-01-22T09:31:28.431Z,4.28
2023-01-22T09:33:55.837Z,4.27
2023-01-22T09:36:22.924Z,4.28
2023-01-22T09:38:49.746Z,4.28
2023-01-22T09:41:39.860Z,4.18
2023-01-22T09:44:22.614Z,4.28
2023-01-22T09:47:00.185Z,4.30
2023-01-22T09:49:37.177Z,4.32
2023-01-22T09:52:05.555Z,4.38
2023-01-22T09:54:33.502Z,4.72
2023-01-22T09:57:04.871Z,4.96
2023-01-22T09:59:47.733Z,5.18
2023-01-22T10:02:34.173Z,5.57
2023-01-22T10:05:23.153Z,5.55
2023-01-22T10:07:54.464Z,5.47
2023-01-22T10:10:26.722Z,5.65
2023-01-22T10:12:58.205Z,5.13
2023-01-22T10:15:25.552Z,4.94
2023-01-22T10:17:54.091Z,4.89
2023-01-22T10:20:21.791Z,4.80
2023-01-22T10:22:49.035Z,4.91
2023-01-22T10:25:16.558Z,4.75
2023-01-22T10:27:46.084Z,4.76
2023-01-22T10:30:22.127Z,4.80
2023-01-22T10:33:06.897Z,4.67
2023-01-22T10:35:44.021Z,4.69
2023-01-22T10:38:22.406Z,4.64
2023-01-22T10:40:54.472Z,4.66
2023-01-22T10:43:21.271Z,4.48
2023-01-22T10:45:55.542Z,4.48
2023-01-22T10:48:23.133Z,4.49
2023-01-22T10:51:12.120Z,4.95
2023-01-22T10:53:46.995Z,4.81
2023-01-22T10:56:34.233Z,4.67
2023-01-22T10:59:23.195Z,4.58
2023-01-22T11:01:57.171Z,4.56
2023-01-22T11:04:29.983Z,4.54
2023-01-22T11:07:09.152Z,4.59
2023-01-22T11:09:47.815Z,4.54
2023-01-22T11:12:20.654Z,4.62
2023-01-22T11:15:11.061Z,4.71
2023-01-22T11:17:41.913Z,4.60
2023-01-22T11:20:20.410Z,4.61
2023-01-22T11:23:14.544Z,4.64
2023-01-22T11:25:58.496Z,4.67
2023-01-22T11:29:17.937Z,4.71
2023-01-22T11:32:02.396Z,4.71
2023-01-22T11:34:41.468Z,4.66
2023-01-22T11:37:14.018Z,4.64
2023-01-22T11:40:28.121Z,4.59
2023-01-22T11:43:19.208Z,4.66
2023-01-22T11:46:11.038Z,4.65
2023-01-22T11:49:08.194Z,4.67
2023-01-22T11:51:47.016Z,4.77
2023-01-22T11:54:39.049Z,4.66
2023-01-22T11:57:05.872Z,4.63
2023-01-22T11:59:59.042Z,4.73
2023-01-22T12:02:34.970Z,4.73
2023-01-22T12:05:09.518Z,4.77
2023-01-22T12:08:06.088Z,4.80
2023-01-22T12:10:57.505Z,4.73
2023-01-22T12:13:46.060Z,4.74
2023-01-22T12:16:33.211Z,4.77
2023-01-22T12:19:25.516Z,4.67
2023-01-22T12:22:30.096Z,4.61
2023-01-22T12:25:21.412Z,4.54
2023-01-22T12:28:24.260Z,4.43
2023-01-22T12:30:58.762Z,4.49
2023-01-22T12:33:40.661Z,4.52
2023-01-22T12:36:13.147Z,4.41
2023-01-22T12:39:17.563Z,4.39
2023-01-22T12:42:19.668Z,4.43
2023-01-22T12:44:59.480Z,4.46
2023-01-22T12:47:32.251Z,4.33
2023-01-22T12:49:59.050Z,4.37
2023-01-22T12:52:36.638Z,4.48
2023-01-22T12:55:35.087Z,4.46
2023-01-22T12:58:02.843Z,4.50
2023-01-22T13:00:39.379Z,4.46
2023-01-22T13:03:32.910Z,4.52
2023-01-22T13:06:02.685Z,4.52
2023-01-22T13:08:43.443Z,4.46
2023-01-22T13:11:29.833Z,4.48
2023-01-22T13:14:18.055Z,4.58
2023-01-22T13:17:15.655Z,4.45
2023-01-22T13:19:47.228Z,4.50
2023-01-22T13:22:17.342Z,4.49
2023-01-22T13:24:58.244Z,4.49
2023-01-22T13:27:28.144Z,4.46
2023-01-22T13:30:20.313Z,4.44
2023-01-22T13:32:47.259Z,4.44
2023-01-22T13:35:15.544Z,4.42
2023-01-22T13:37:45.423Z,4.41
2023-01-22T13:40:23.548Z,4.35
2023-01-22T13:42:51.380Z,4.42
2023-01-22T13:45:33.463Z,4.38
2023-01-22T13:48:04.040Z,4.42
2023-01-22T13:50:31.604Z,4.24
2023-01-22T13:53:02.515Z,4.35
2023-01-22T13:55:30.550Z,4.37
2023-01-22T13:58:00.887Z,4.34
2023-01-22T14:00:36.412Z,4.27
2023-01-22T14:03:03.860Z,4.24
2023-01-22T14:05:34.615Z,4.30
2023-01-22T14:08:11.291Z,4.37
2023-01-22T14:10:41.287Z,4.46
2023-01-22T14:13:11.028Z,4.44
2023-01-22T14:15:38.817Z,4.54
2023-01-22T14:18:11.512Z,4.47
2023-01-22T14:20:42.049Z,4.22
2023-01-22T14:23:09.359Z,4.33
2023-01-22T14:25:42.712Z,4.36
2023-01-22T14:28:09.691Z,4.30
2023-01-22T14:30:36.647Z,4.29
2023-01-22T14:33:03.674Z,4.29
2023-01-22T14:35:30.416Z,4.28
2023-01-22T14:37:57.239Z,4.23
2023-01-22T14:40:26.334Z,4.14
2023-01-22T14:42:53.429Z,4.10
2023-01-22T14:45:20.655Z,4.13
2023-01-22T14:47:52.252Z,4.12
2023-01-22T14:50:21.032Z,4.12
2023-01-22T14:52:49.047Z,4.04
2023-01-22T14:55:15.905Z,3.97
2023-01-22T14:57:42.993Z,4.35
2023-01-22T15:00:13.306Z,4.16
2023-01-22T15:02:41.593Z,4.03
2023-01-22T15:05:10.288Z,3.94
2023-01-22T15:07:38.467Z,3.91
2023-01-22T15:10:06.905Z,3.92
2023-01-22T15:12:34.211Z,3.93
2023-01-22T15:15:00.905Z,3.91
2023-01-22T15:17:27.891Z,3.94
2023-01-22T15:19:54.638Z,3.89
2023-01-22T15:22:21.457Z,3.95
2023-01-22T15:24:48.207Z,3.92
2023-01-22T15:27:18.575Z,3.93
2023-01-22T15:29:46.014Z,3.90
2023-01-22T15:32:12.818Z,3.91
2023-01-22T15:34:39.747Z,3.89
2023-01-22T15:37:06.787Z,3.86
2023-01-22T15:39:33.600Z,3.76
2023-01-22T15:42:00.383Z,3.78
2023-01-22T15:44:27.353Z,3.79
2023-01-22T15:46:54.083Z,3.82
2023-01-22T15:49:20.877Z,3.75
2023-01-22T15:51:47.539Z,3.77
2023-01-22T15:54:15.933Z,3.84
2023-01-22T15:56:43.239Z,3.82
2023-01-22T15:59:11.055Z,3.86
2023-01-22T16:01:38.208Z,3.82
2023-01-22T16:04:05.415Z,3.84
2023-01-22T16:06:34.433Z,3.69
2023-01-22T16:09:03.200Z,3.76
2023-01-22T16:11:30.386Z,3.77
2023-01-22T16:13:59.306Z,3.79
2023-01-22T16:16:36.282Z,3.79
2023-01-22T16:19:06.023Z,3.79
2023-01-22T16:21:33.035Z,3.85
2023-01-22T16:24:01.108Z,3.76
2023-01-22T16:26:30.478Z,3.79
2023-01-22T16:28:59.346Z,3.82
2023-01-22T16:31:31.872Z,3.83
2023-01-22T16:34:00.689Z,3.82
2023-01-22T16:36:29.883Z,3.87
2023-01-22T16:38:56.957Z,3.84
2023-01-22T16:41:29.326Z,3.75
2023-01-22T16:44:09.770Z,3.71
2023-01-22T16:46:41.785Z,3.68
2023-01-22T16:49:20.934Z,3.75
2023-01-22T16:51:50.684Z,3.71
2023-01-22T16:54:24.615Z,3.74
2023-01-22T16:56:51.456Z,3.73
2023-01-22T16:59:18.337Z,3.88
2023-01-22T17:01:45.522Z,3.83
2023-01-22T17:04:13.745Z,3.80
2023-01-22T17:06:45.297Z,3.82
2023-01-22T17:09:18.398Z,3.77
2023-01-22T17:11:47.127Z,3.84
2023-01-22T17:14:17.162Z,3.74
2023-01-22T17:16:46.002Z,3.77
2023-01-22T17:19:15.176Z,3.73
2023-01-22T17:21:42.693Z,3.74
2023-01-22T17:24:11.445Z,3.75
2023-01-22T17:26:39.020Z,3.68
2023-01-22T17:29:07.073Z,3.73
2023-01-22T17:31:33.999Z,3.68
2023-01-22T17:34:01.035Z,3.68
2023-01-22T17:36:28.484Z,3.67
2023-01-22T17:38:56.697Z,3.59
2023-01-22T17:41:25.451Z,3.59
2023-01-22T17:43:55.350Z,3.58
2023-01-22T17:46:25.270Z,3.57
2023-01-22T17:48:53.919Z,3.59
2023-01-22T17:51:27.184Z,3.73
2023-01-22T17:53:56.324Z,3.57
2023-01-22T17:56:31.927Z,3.55
2023-01-22T17:59:02.452Z,3.60
2023-01-22T18:01:31.111Z,3.58
2023-01-22T18:04:03.795Z,3.60
2023-01-22T18:06:31.064Z,3.52
2023-01-22T18:08:57.915Z,3.48
2023-01-22T18:11:30.087Z,3.53
2023-01-22T18:13:59.305Z,3.58
2023-01-22T18:16:28.544Z,3.62
2023-01-22T18:18:57.153Z,3.59
2023-01-22T18:21:24.270Z,3.60
2023-01-22T18:23:51.670Z,3.63
2023-01-22T18:26:22.951Z,3.67
2023-01-22T18:28:51.274Z,3.64
2023-01-22T18:31:22.043Z,3.33
2023-01-22T18:33:49.761Z,3.36
2023-01-22T18:36:23.410Z,3.40
2023-01-22T18:38:51.243Z,3.41
2023-01-22T18:41:23.880Z,3.36
2023-01-22T18:43:55.258Z,3.40
2023-01-22T18:46:24.841Z,3.39
2023-01-22T18:48:59.573Z,3.41
2023-01-22T18:51:28.402Z,3.47
2023-01-22T18:53:58.451Z,3.34
2023-01-22T18:56:25.666Z,3.42
2023-01-22T18:58:59.585Z,3.44
2023-01-22T19:01:31.973Z,3.50
2023-01-22T19:04:08.615Z,3.49
2023-01-22T19:06:38.607Z,3.48
2023-01-22T19:09:12.498Z,3.47
2023-01-22T19:11:42.173Z,3.46
2023-01-22T19:14:10.650Z,3.38
2023-01-22T19:16:38.422Z,3.38
2023-01-22T19:19:13.403Z,3.44
2023-01-22T19:21:46.639Z,3.42
2023-01-22T19:24:15.459Z,3.35
2023-01-22T19:26:44.765Z,3.41
2023-01-22T19:29:15.316Z,3.27
2023-01-22T19:31:46.354Z,3.35
2023-01-22T19:34:16.538Z,3.31
2023-01-22T19:36:43.439Z,3.30
2023-01-22T19:39:12.923Z,3.27
2023-01-22T19:41:40.784Z,3.28
2023-01-22T19:44:09.129Z,3.27
2023-01-22T19:46:37.926Z,3.24
2023-01-22T19:49:05.605Z,3.20
2023-01-22T19:51:32.345Z,3.18
2023-01-22T19:54:00.465Z,3.23
2023-01-22T19:56:30.146Z,3.27
2023-01-22T19:59:06.255Z,3.27
2023-01-22T20:01:34.902Z,3.24
2023-01-22T20:04:01.835Z,3.25
2023-01-22T20:06:28.740Z,3.25
2023-01-22T20:08:57.093Z,3.23
2023-01-22T20:11:24.476Z,3.25
2023-01-22T20:13:52.539Z,3.21
2023-01-22T20:16:25.238Z,3.18
2023-01-22T20:18:53.286Z,3.26
2023-01-22T20:21:21.271Z,3.24
2023-01-22T20:23:49.625Z,3.23
2023-01-22T20:26:19.386Z,3.24
2023-01-22T20:28:47.560Z,3.21
2023-01-22T20:31:19.978Z,3.30
2023-01-22T20:33:47.268Z,3.27
2023-01-22T20:36:15.456Z,3.23
2023-01-22T20:38:46.487Z,3.17
2023-01-22T20:41:14.221Z,3.24
2023-01-22T20:43:42.871Z,3.25
2023-01-22T20:46:15.940Z,3.19
2023-01-22T20:48:43.167Z,3.17
2023-01-22T20:51:15.883Z,3.25
2023-01-22T20:53:44.079Z,3.29
2023-01-22T20:56:21.114Z,3.26
2023-01-22T20:58:47.977Z,3.20
2023-01-22T21:01:19.153Z,3.21
2023-01-22T21:03:47.785Z,3.14
2023-01-22T21:06:18.729Z,3.25
2023-01-22T21:08:50.549Z,3.13
2023-01-22T21:11:20.453Z,3.15
2023-01-22T21:13:52.197Z,3.16
2023-01-22T21:16:26.497Z,3.19
2023-01-22T21:18:55.311Z,3.13
2023-01-22T21:21:22.079Z,3.09
2023-01-22T21:23:51.534Z,3.11
2023-01-22T21:26:22.763Z,3.11
2023-01-22T21:28:51.132Z,3.16
2023-01-22T21:31:20.289Z,3.21
2023-01-22T21:33:48.924Z,3.18
2023-01-22T21:36:18.474Z,3.17
2023-01-22T21:38:48.577Z,3.17
2023-01-22T21:41:17.800Z,3.19
2023-01-22T21:44:05.345Z,3.19
2023-01-22T21:46:41.783Z,3.24
2023-01-22T21:49:16.778Z,3.21
2023-01-22T21:51:56.470Z,3.20
2023-01-22T21:54:34.669Z,3.21
2023-01-22T21:57:01.996Z,3.21
2023-01-22T21:59:28.739Z,3.20
2023-01-22T22:01:56.639Z,3.20
2023-01-22T22:04:25.668Z,3.21
2023-01-22T22:06:53.691Z,3.24
2023-01-22T22:09:23.405Z,3.20
2023-01-22T22:11:50.280Z,3.20
2023-01-22T22:14:20.276Z,3.02
2023-01-22T22:16:47.969Z,3.12
2023-01-22T22:19:15.971Z,3.09
2023-01-22T22:21:42.727Z,3.06
2023-01-22T22:24:10.061Z,3.00
2023-01-22T22:26:36.872Z,2.96
2023-01-22T22:29:05.158Z,2.94
2023-01-22T22:31:32.484Z,3.02
2023-01-22T22:33:59.411Z,2.98
2023-01-22T22:36:28.491Z,2.93
2023-01-22T22:38:55.229Z,2.99
2023-01-22T22:41:27.321Z,3.01
2023-01-22T22:43:55.364Z,2.90
2023-01-22T22:46:31.323Z,2.97
2023-01-22T22:49:00.315Z,2.97
2023-01-22T22:51:29.948Z,2.96
2023-01-22T22:53:59.525Z,2.91
2023-01-22T22:56:28.088Z,2.93
2023-01-22T22:58:56.581Z,2.95
2023-01-22T23:01:25.416Z,2.95
2023-01-22T23:03:53.574Z,2.96
2023-01-22T23:06:24.383Z,2.91
2023-01-22T23:08:53.164Z,2.93
2023-01-22T23:11:26.503Z,2.98
2023-01-22T23:13:53.949Z,2.91
2023-01-22T23:16:23.047Z,2.89
2023-01-22T23:18:51.936Z,2.94
2023-01-22T23:21:24.125Z,2.90
2023-01-22T23:23:52.127Z,2.89
2023-01-22T23:26:23.002Z,2.89
2023-01-22T23:28:52.041Z,2.88
2023-01-22T23:31:18.962Z,2.91
2023-01-22T23:33:45.840Z,2.89
2023-01-22T23:36:15.108Z,2.96
2023-01-22T23:38:42.550Z,2.85
2023-01-22T23:41:12.683Z,2.83
2023-01-22T23:43:39.655Z,2.87
2023-01-22T23:46:15.833Z,2.82
2023-01-22T23:48:42.852Z,2.88
2023-01-22T23:51:11.236Z,2.88
2023-01-22T23:53:40.087Z,2.91
2023-01-22T23:56:07.624Z,2.82
2023-01-22T23:58:35.605Z,2.83
